createdAt,value
2019-04-03T00:01:36.959Z,47.70
2019-04-03T00:04:06.733Z,47.70
2019-04-03T00:06:36.287Z,46.30
2019-04-03T00:09:07.404Z,46.30
2019-04-03T00:11:39.515Z,47.40
2019-04-03T00:14:08.412Z,46.50
2019-04-03T00:16:37.946Z,48.40
2019-04-03T00:19:07.489Z,48.80
2019-04-03T00:21:37.025Z,49.20
2019-04-03T00:24:06.922Z,48.20
2019-04-03T00:26:36.705Z,48.70
2019-04-03T00:29:06.202Z,48.70
2019-04-03T00:31:35.740Z,48.60
2019-04-03T00:34:05.312Z,48.30
2019-04-03T00:36:35.106Z,48.90
2019-04-03T00:39:07.109Z,48.40
2019-04-03T00:41:36.601Z,48.40
2019-04-03T00:44:06.419Z,47.90
2019-04-03T00:46:35.938Z,47.60
2019-04-03T00:49:05.813Z,47.90
2019-04-03T00:51:35.904Z,47.60
2019-04-03T00:54:05.674Z,47.80
2019-04-03T00:56:35.249Z,48.10
2019-04-03T00:59:05.095Z,48.50
2019-04-03T01:01:34.587Z,48.30
2019-04-03T01:04:04.643Z,48.20
2019-04-03T01:06:34.120Z,49.50
2019-04-03T01:09:05.542Z,48.90
2019-04-03T01:11:35.081Z,49.20
2019-04-03T01:14:05.348Z,49.80
2019-04-03T01:16:35.159Z,50.30
2019-04-03T01:19:05.769Z,50.40
2019-04-03T01:21:37.204Z,50.10
2019-04-03T01:24:08.340Z,51.10
2019-04-03T01:26:40.346Z,51.00
2019-04-03T01:29:10.621Z,51.30
2019-04-03T01:31:40.922Z,51.20
2019-04-03T01:34:10.411Z,50.60
2019-04-03T01:36:39.945Z,51.20
2019-04-03T01:39:09.478Z,52.50
2019-04-03T01:41:39.200Z,52.10
2019-04-03T01:44:08.986Z,52.60
2019-04-03T01:46:38.559Z,52.10
2019-04-03T01:49:08.363Z,51.60
2019-04-03T01:51:37.955Z,51.10
2019-04-03T01:54:07.480Z,50.80
2019-04-03T01:56:37.112Z,50.70
2019-04-03T01:59:07.365Z,50.30
2019-04-03T02:01:38.648Z,50.60
2019-04-03T02:04:08.500Z,50.10
2019-04-03T02:06:38.082Z,51.00
2019-04-03T02:09:10.545Z,51.00
2019-04-03T02:11:40.482Z,50.80
2019-04-03T02:14:10.253Z,50.90
2019-04-03T02:16:39.843Z,50.90
2019-04-03T02:19:09.377Z,51.20
2019-04-03T02:21:38.980Z,51.00
2019-04-03T02:24:08.750Z,51.40
2019-04-03T02:26:38.345Z,50.90
2019-04-03T02:29:08.819Z,51.10
2019-04-03T02:31:39.082Z,50.50
2019-04-03T02:34:08.833Z,51.70
2019-04-03T02:36:38.415Z,51.10
2019-04-03T02:39:08.309Z,51.40
2019-04-03T02:41:37.991Z,50.80
2019-04-03T02:44:07.567Z,51.50
2019-04-03T02:46:37.275Z,51.30
2019-04-03T02:49:09.675Z,51.00
2019-04-03T02:51:38.575Z,51.30
2019-04-03T02:54:17.675Z,51.60
2019-04-03T02:56:47.473Z,52.20
2019-04-03T02:59:16.963Z,52.60
2019-04-03T03:01:47.046Z,52.70
2019-04-03T03:04:20.558Z,52.80
2019-04-03T03:06:48.326Z,52.60
2019-04-03T03:09:17.851Z,52.80
2019-04-03T03:11:47.726Z,52.70
2019-04-03T03:14:18.218Z,51.50
2019-04-03T03:16:50.347Z,52.00
2019-04-03T03:19:19.626Z,51.80
2019-04-03T03:21:49.479Z,51.90
2019-04-03T03:24:19.797Z,51.90
2019-04-03T03:26:49.563Z,51.40
2019-04-03T03:29:24.075Z,51.10
2019-04-03T03:32:15.513Z,51.10
2019-04-03T03:34:45.782Z,50.60
2019-04-03T03:37:00.005Z,51.80
2019-04-03T03:39:26.398Z,51.40
2019-04-03T03:41:58.587Z,52.60
2019-04-03T03:44:29.314Z,52.30
2019-04-03T03:47:01.047Z,52.40
2019-04-03T03:49:31.422Z,52.60
2019-04-03T03:52:04.042Z,53.00
2019-04-03T03:54:33.109Z,51.70
2019-04-03T03:57:05.027Z,51.30
2019-04-03T03:59:34.945Z,52.00
2019-04-03T04:02:06.115Z,52.40
2019-04-03T04:04:36.348Z,52.40
2019-04-03T04:07:05.963Z,52.30
2019-04-03T04:09:36.080Z,51.80
2019-04-03T04:12:07.352Z,51.90
2019-04-03T04:14:38.269Z,51.60
2019-04-03T04:17:12.454Z,52.10
2019-04-03T04:19:40.156Z,51.40
2019-04-03T04:22:09.888Z,51.10
2019-04-03T04:24:39.972Z,51.20
2019-04-03T04:27:09.932Z,51.00
2019-04-03T04:29:41.815Z,51.10
2019-04-03T04:32:14.520Z,51.20
2019-04-03T04:34:42.934Z,50.50
2019-04-03T04:37:12.551Z,51.60
2019-04-03T04:39:42.139Z,51.70
2019-04-03T04:42:11.969Z,51.80
2019-04-03T04:44:41.638Z,51.90
2019-04-03T04:47:11.096Z,52.00
2019-04-03T04:49:40.617Z,52.30
2019-04-03T04:52:10.492Z,51.30
2019-04-03T04:54:42.795Z,52.30
2019-04-03T04:57:11.634Z,52.20
2019-04-03T04:59:41.277Z,51.90
2019-04-03T05:02:10.894Z,51.60
2019-04-03T05:04:40.757Z,51.90
2019-04-03T05:07:10.849Z,51.80
2019-04-03T05:09:40.385Z,52.00
2019-04-03T05:12:10.350Z,52.70
2019-04-03T05:14:40.143Z,53.70
2019-04-03T05:17:09.863Z,55.90
2019-04-03T05:19:39.455Z,56.10
2019-04-03T05:22:09.308Z,56.50
2019-04-03T05:24:39.641Z,56.60
2019-04-03T05:27:09.150Z,55.60
2019-04-03T05:29:38.957Z,55.60
2019-04-03T05:32:10.483Z,54.60
2019-04-03T05:34:40.069Z,54.40
2019-04-03T05:37:11.689Z,53.80
2019-04-03T05:39:40.805Z,53.40
2019-04-03T05:42:10.396Z,52.80
2019-04-03T05:44:40.192Z,52.00
2019-04-03T05:47:09.964Z,51.30
2019-04-03T05:49:39.722Z,51.30
2019-04-03T05:52:09.260Z,52.30
2019-04-03T05:54:39.316Z,51.50
2019-04-03T05:57:09.429Z,50.60
2019-04-03T05:59:39.198Z,50.30
2019-04-03T06:02:15.751Z,50.80
2019-04-03T06:04:40.886Z,50.40
2019-04-03T06:07:11.105Z,50.50
2019-04-03T06:09:40.638Z,50.20
2019-04-03T06:12:12.983Z,49.30
2019-04-03T06:14:41.658Z,48.40
2019-04-03T06:17:11.453Z,49.00
2019-04-03T06:19:40.960Z,47.50
2019-04-03T06:22:10.814Z,48.00
2019-04-03T06:24:40.390Z,47.10
2019-04-03T06:27:10.507Z,47.10
2019-04-03T06:29:40.346Z,46.40
2019-04-03T06:32:09.858Z,45.10
2019-04-03T06:34:42.698Z,44.50
2019-04-03T06:37:10.639Z,43.80
2019-04-03T06:39:40.339Z,42.30
2019-04-03T06:42:12.851Z,42.40
2019-04-03T06:44:41.067Z,42.20
2019-04-03T06:47:10.744Z,41.90
2019-04-03T06:49:41.047Z,41.40
2019-04-03T06:52:11.113Z,41.00
2019-04-03T06:54:43.847Z,41.10
2019-04-03T06:57:13.884Z,40.70
2019-04-03T06:59:43.930Z,40.30
2019-04-03T07:02:13.563Z,40.30
2019-04-03T07:04:43.347Z,40.30
2019-04-03T07:07:13.153Z,40.10
2019-04-03T07:09:42.723Z,38.90
2019-04-03T07:12:12.388Z,38.70
2019-04-03T07:14:42.246Z,37.70
2019-04-03T07:17:11.776Z,37.40
2019-04-03T07:19:41.326Z,36.40
2019-04-03T07:22:10.869Z,35.60
2019-04-03T07:24:40.402Z,35.60
2019-04-03T07:27:09.944Z,35.20
2019-04-03T07:29:39.707Z,34.60
2019-04-03T07:32:09.235Z,34.30
2019-04-03T07:34:38.800Z,33.50
2019-04-03T07:37:08.330Z,33.50
2019-04-03T07:39:38.331Z,31.70
2019-04-03T07:42:07.847Z,31.80
2019-04-03T07:44:37.638Z,29.80
2019-04-03T07:47:07.153Z,29.60
2019-04-03T07:49:37.730Z,28.90
2019-04-03T07:52:08.187Z,27.30
2019-04-03T07:54:37.740Z,27.60
2019-04-03T07:57:09.862Z,26.90
2019-04-03T07:59:38.482Z,25.80
2019-04-03T08:02:07.977Z,26.70
2019-04-03T08:04:37.664Z,25.90
2019-04-03T08:07:07.635Z,25.10
2019-04-03T08:09:37.351Z,24.90
2019-04-03T08:12:07.135Z,24.90
2019-04-03T08:14:36.647Z,24.60
2019-04-03T08:17:06.578Z,25.20
2019-04-03T08:19:36.366Z,24.60
2019-04-03T08:22:06.015Z,24.60
2019-04-03T08:24:35.572Z,24.50
2019-04-03T08:27:07.869Z,23.20
2019-04-03T08:29:38.275Z,23.20
2019-04-03T08:32:07.648Z,23.10
2019-04-03T08:34:37.189Z,23.60
2019-04-03T08:37:09.719Z,24.20
2019-04-03T08:39:38.259Z,22.90
2019-04-03T08:42:07.800Z,23.10
2019-04-03T08:44:37.703Z,21.80
2019-04-03T08:47:07.240Z,22.20
2019-04-03T08:49:36.775Z,22.20
2019-04-03T08:52:06.380Z,23.00
2019-04-03T08:54:36.158Z,22.20
2019-04-03T08:57:05.717Z,21.50
2019-04-03T08:59:35.280Z,21.60
2019-04-03T09:02:05.814Z,21.80
2019-04-03T09:04:35.978Z,21.20
2019-04-03T09:07:05.848Z,20.50
2019-04-03T09:09:36.024Z,20.30
2019-04-03T09:12:07.361Z,20.40
2019-04-03T09:14:37.115Z,19.80
2019-04-03T09:17:06.699Z,19.80
2019-04-03T09:19:36.244Z,19.30
2019-04-03T09:22:05.755Z,19.00
2019-04-03T09:24:35.321Z,19.00
2019-04-03T09:27:08.199Z,19.30
2019-04-03T09:29:36.580Z,19.20
2019-04-03T09:32:06.356Z,20.20
2019-04-03T09:34:35.966Z,20.50
2019-04-03T09:37:07.045Z,21.40
2019-04-03T09:39:36.730Z,21.70
2019-04-03T09:42:06.284Z,21.30
2019-04-03T09:44:35.804Z,21.20
2019-04-03T09:47:05.432Z,20.90
2019-04-03T09:49:34.984Z,21.10
2019-04-03T09:52:05.021Z,21.40
2019-04-03T09:54:35.000Z,21.30
2019-04-03T09:57:05.755Z,21.10
2019-04-03T09:59:37.452Z,20.40
2019-04-03T10:02:06.706Z,19.40
2019-04-03T10:04:36.605Z,20.00
2019-04-03T10:07:06.304Z,20.20
2019-04-03T10:09:38.484Z,19.70
2019-04-03T10:12:07.055Z,19.60
2019-04-03T10:14:36.622Z,19.50
2019-04-03T10:17:07.094Z,18.90
2019-04-03T10:19:37.375Z,19.10
2019-04-03T10:22:07.530Z,18.70
2019-04-03T10:24:37.562Z,18.70
2019-04-03T10:27:10.733Z,18.90
2019-04-03T10:29:38.729Z,19.30
2019-04-03T10:32:08.479Z,20.90
2019-04-03T10:34:38.014Z,21.50
2019-04-03T10:37:07.585Z,20.90
2019-04-03T10:39:40.029Z,21.30
2019-04-03T10:42:08.309Z,22.40
2019-04-03T10:44:37.874Z,22.90
2019-04-03T10:47:07.386Z,24.20
2019-04-03T10:49:36.999Z,25.90
2019-04-03T10:52:06.841Z,28.80
2019-04-03T10:54:38.026Z,32.00
2019-04-03T10:57:07.721Z,33.00
2019-04-03T10:59:37.285Z,34.80
2019-04-03T11:02:06.808Z,35.30
2019-04-03T11:04:36.402Z,34.70
2019-04-03T11:07:05.963Z,38.90
2019-04-03T11:09:35.875Z,42.00
2019-04-03T11:12:05.444Z,46.50
2019-04-03T11:14:35.024Z,53.80
2019-04-03T11:17:04.853Z,60.50
2019-04-03T11:19:36.942Z,64.60
2019-04-03T11:22:05.519Z,70.00
2019-04-03T11:24:37.721Z,75.90
2019-04-03T11:27:07.068Z,79.50
2019-04-03T11:29:36.692Z,82.40
2019-04-03T11:32:08.520Z,84.00
2019-04-03T11:34:37.434Z,84.90
2019-04-03T11:37:07.042Z,85.60
2019-04-03T11:39:37.540Z,83.70
2019-04-03T11:42:07.847Z,86.50
2019-04-03T11:44:37.440Z,88.00
2019-04-03T11:47:07.178Z,88.80
2019-04-03T11:49:36.715Z,90.20
2019-04-03T11:52:06.249Z,88.70
2019-04-03T11:54:36.991Z,89.40
2019-04-03T11:57:06.991Z,90.40
2019-04-03T11:59:36.509Z,90.60
2019-04-03T12:02:07.857Z,91.30
2019-04-03T12:04:37.925Z,91.00
2019-04-03T12:07:07.533Z,91.40
2019-04-03T12:09:37.087Z,92.90
2019-04-03T12:12:08.922Z,92.70
2019-04-03T12:14:38.094Z,93.40
2019-04-03T12:17:07.845Z,93.00
2019-04-03T12:19:37.969Z,92.30
2019-04-03T12:22:08.119Z,92.60
2019-04-03T12:24:37.641Z,91.00
2019-04-03T12:27:07.209Z,90.40
2019-04-03T12:29:36.748Z,90.00
2019-04-03T12:32:09.080Z,90.00
2019-04-03T12:34:38.286Z,85.30
2019-04-03T12:37:08.397Z,82.70
2019-04-03T12:39:37.929Z,83.40
2019-04-03T12:42:08.734Z,81.10
2019-04-03T12:44:38.917Z,77.10
2019-04-03T12:47:12.415Z,75.20
2019-04-03T12:49:39.661Z,77.30
2019-04-03T12:52:09.280Z,75.80
2019-04-03T12:54:38.866Z,75.60
2019-04-03T12:57:08.792Z,74.00
2019-04-03T12:59:40.009Z,73.80
2019-04-03T13:02:10.517Z,73.90
2019-04-03T13:04:40.441Z,72.90
2019-04-03T13:07:13.426Z,71.80
2019-04-03T13:09:41.285Z,70.20
2019-04-03T13:12:11.878Z,69.40
2019-04-03T13:14:41.999Z,68.50
2019-04-03T13:17:13.511Z,68.60
2019-04-03T13:19:43.023Z,68.50
2019-04-03T13:22:12.641Z,68.30
2019-04-03T13:24:42.217Z,68.00
2019-04-03T13:27:12.360Z,66.50
2019-04-03T13:29:41.864Z,64.70
2019-04-03T13:32:11.503Z,63.10
2019-04-03T13:34:42.691Z,63.20
2019-04-03T13:37:12.382Z,61.50
2019-04-03T13:39:42.154Z,58.80
2019-04-03T13:42:13.909Z,52.70
2019-04-03T13:44:43.176Z,51.90
2019-04-03T13:47:12.783Z,50.30
2019-04-03T13:49:42.327Z,48.30
2019-04-03T13:52:12.163Z,52.70
2019-04-03T13:54:41.770Z,51.10
2019-04-03T13:57:11.885Z,45.20
2019-04-03T13:59:42.708Z,46.30
2019-04-03T14:02:13.601Z,46.90
2019-04-03T14:04:43.574Z,47.50
2019-04-03T14:07:13.438Z,45.70
2019-04-03T14:09:42.991Z,43.50
2019-04-03T14:12:12.831Z,41.60
2019-04-03T14:14:42.510Z,40.70
2019-04-03T14:17:13.849Z,38.20
2019-04-03T14:19:46.709Z,35.80
2019-04-03T14:22:14.629Z,36.10
2019-04-03T14:24:47.483Z,33.70
2019-04-03T14:27:22.745Z,33.90
2019-04-03T14:29:47.208Z,33.90
2019-04-03T14:32:18.456Z,34.30
2019-04-03T14:34:48.060Z,34.40
2019-04-03T14:37:17.652Z,35.80
2019-04-03T14:39:47.487Z,34.90
2019-04-03T14:42:17.007Z,36.00
2019-04-03T14:44:47.032Z,36.20
2019-04-03T14:47:16.935Z,36.90
2019-04-03T14:49:46.813Z,37.50
2019-04-03T14:52:16.863Z,37.80
2019-04-03T14:54:47.157Z,32.70
2019-04-03T14:57:22.440Z,28.50
2019-04-03T14:59:48.061Z,26.40
2019-04-03T15:02:18.032Z,25.90
2019-04-03T15:04:48.085Z,23.30
2019-04-03T15:07:18.739Z,21.60
2019-04-03T15:09:48.639Z,22.20
2019-04-03T15:12:18.214Z,23.80
2019-04-03T15:14:48.160Z,21.90
2019-04-03T15:17:18.250Z,21.70
2019-04-03T15:19:48.349Z,22.80
2019-04-03T15:22:17.964Z,24.40
2019-04-03T15:24:48.022Z,24.90
2019-04-03T15:27:18.024Z,24.90
2019-04-03T15:29:47.637Z,24.80
2019-04-03T15:32:18.636Z,25.40
2019-04-03T15:34:50.643Z,26.20
2019-04-03T15:37:20.016Z,28.60
2019-04-03T15:39:56.454Z,30.20
2019-04-03T15:42:20.977Z,30.30
2019-04-03T15:44:52.102Z,29.70
2019-04-03T15:47:33.907Z,30.10
2019-04-03T15:49:53.289Z,29.70
2019-04-03T15:52:22.898Z,29.40
2019-04-03T15:54:53.193Z,28.20
2019-04-03T15:57:23.219Z,28.20
2019-04-03T15:59:53.390Z,27.90
2019-04-03T16:02:23.684Z,27.40
2019-04-03T16:04:53.837Z,27.60
2019-04-03T16:07:23.424Z,28.90
2019-04-03T16:09:53.008Z,29.40
2019-04-03T16:12:22.619Z,29.10
2019-04-03T16:14:52.159Z,30.70
2019-04-03T16:17:22.158Z,30.70
2019-04-03T16:19:52.902Z,30.20
2019-04-03T16:22:22.946Z,30.60
2019-04-03T16:24:53.824Z,31.50
2019-04-03T16:27:29.118Z,32.40
2019-04-03T16:29:57.833Z,32.60
2019-04-03T16:32:28.257Z,34.20
2019-04-03T16:34:58.879Z,34.70
2019-04-03T16:37:28.721Z,36.10
2019-04-03T16:39:58.248Z,36.20
2019-04-03T16:42:27.874Z,36.60
2019-04-03T16:44:58.342Z,36.50
2019-04-03T16:47:28.135Z,36.60
2019-04-03T16:49:57.716Z,36.90
2019-04-03T16:52:30.102Z,36.70
2019-04-03T16:54:58.824Z,37.10
2019-04-03T16:57:28.688Z,38.40
2019-04-03T16:59:58.621Z,40.30
2019-04-03T17:02:29.785Z,42.30
2019-04-03T17:04:59.690Z,43.10
2019-04-03T17:07:29.296Z,44.30
2019-04-03T17:09:59.465Z,45.30
2019-04-03T17:12:29.316Z,46.80
2019-04-03T17:14:59.295Z,49.40
2019-04-03T17:17:29.242Z,53.20
2019-04-03T17:19:59.087Z,56.30
2019-04-03T17:22:28.702Z,59.10
2019-04-03T17:24:58.996Z,61.30
2019-04-03T17:27:30.194Z,60.40
2019-04-03T17:30:00.173Z,59.50
2019-04-03T17:32:31.174Z,58.20
2019-04-03T17:35:01.619Z,59.10
2019-04-03T17:37:31.153Z,59.00
2019-04-03T17:40:00.896Z,59.10
2019-04-03T17:42:30.512Z,60.90
2019-04-03T17:45:00.156Z,62.40
2019-04-03T17:47:29.722Z,63.50
2019-04-03T17:49:59.910Z,65.00
2019-04-03T17:52:29.579Z,64.90
2019-04-03T17:54:59.458Z,67.30
2019-04-03T17:57:29.100Z,68.20
2019-04-03T17:59:58.978Z,68.50
2019-04-03T18:02:30.027Z,70.10
2019-04-03T18:04:59.627Z,70.80
2019-04-03T18:07:29.297Z,70.60
2019-04-03T18:09:59.133Z,71.60
2019-04-03T18:12:28.745Z,72.60
2019-04-03T18:14:58.615Z,72.30
2019-04-03T18:17:28.157Z,73.20
2019-04-03T18:19:57.902Z,73.30
2019-04-03T18:22:27.456Z,75.00
2019-04-03T18:24:57.049Z,74.90
2019-04-03T18:27:26.650Z,75.30
2019-04-03T18:29:56.469Z,74.40
2019-04-03T18:32:26.058Z,73.70
2019-04-03T18:34:55.939Z,73.70
2019-04-03T18:37:25.484Z,73.60
2019-04-03T18:39:55.135Z,73.20
2019-04-03T18:42:24.940Z,72.70
2019-04-03T18:44:55.962Z,73.40
2019-04-03T18:47:25.821Z,74.10
2019-04-03T18:49:55.685Z,75.00
2019-04-03T18:52:25.333Z,75.90
2019-04-03T18:54:54.948Z,76.50
2019-04-03T18:57:24.620Z,78.80
2019-04-03T18:59:56.223Z,81.10
2019-04-03T19:02:25.772Z,82.40
2019-04-03T19:05:01.725Z,83.40
2019-04-03T19:07:27.262Z,84.30
2019-04-03T19:10:06.243Z,85.90
2019-04-03T19:12:35.643Z,86.40
2019-04-03T19:15:02.527Z,87.40
2019-04-03T19:17:30.938Z,88.20
2019-04-03T19:20:10.183Z,88.60
2019-04-03T19:22:32.135Z,87.40
2019-04-03T19:25:01.738Z,87.30
2019-04-03T19:27:33.018Z,88.90
2019-04-03T19:30:02.648Z,90.00
2019-04-03T19:32:32.273Z,87.60
2019-04-03T19:35:02.161Z,89.90
2019-04-03T19:37:34.082Z,91.40
2019-04-03T19:40:03.185Z,92.90
2019-04-03T19:42:32.768Z,93.90
2019-04-03T19:45:02.371Z,94.20
2019-04-03T19:47:32.533Z,94.20
2019-04-03T19:50:02.269Z,94.40
2019-04-03T19:52:31.877Z,94.10
2019-04-03T19:55:02.642Z,93.90
2019-04-03T19:57:34.223Z,93.70
2019-04-03T20:00:04.031Z,93.40
2019-04-03T20:02:33.641Z,93.50
2019-04-03T20:05:03.515Z,93.10
2019-04-03T20:07:34.299Z,92.90
2019-04-03T20:10:05.987Z,93.20
2019-04-03T20:12:35.807Z,92.90
2019-04-03T20:15:07.501Z,92.50
2019-04-03T20:17:37.191Z,92.50
2019-04-03T20:20:07.423Z,92.50
2019-04-03T20:22:37.880Z,91.90
2019-04-03T20:25:08.955Z,91.80
2019-04-03T20:27:38.625Z,92.00
2019-04-03T20:30:09.758Z,92.00
2019-04-03T20:32:40.844Z,91.90
2019-04-03T20:35:10.702Z,91.70
2019-04-03T20:37:40.338Z,91.60
2019-04-03T20:40:11.593Z,92.00
2019-04-03T20:42:41.610Z,92.60
2019-04-03T20:45:11.254Z,92.70
2019-04-03T20:47:40.895Z,92.70
2019-04-03T20:50:10.480Z,92.80
2019-04-03T20:52:40.094Z,92.50
2019-04-03T20:55:09.856Z,92.80
2019-04-03T20:57:39.514Z,92.60
2019-04-03T21:00:13.618Z,92.60
2019-04-03T21:02:43.323Z,92.40
2019-04-03T21:05:13.460Z,92.40
2019-04-03T21:07:43.310Z,92.70
2019-04-03T21:10:13.160Z,92.60
2019-04-03T21:12:42.699Z,92.80
2019-04-03T21:15:14.209Z,92.30
2019-04-03T21:17:43.721Z,91.80
2019-04-03T21:20:13.613Z,92.30
2019-04-03T21:22:43.548Z,91.90
2019-04-03T21:25:13.460Z,91.70
2019-04-03T21:27:43.041Z,91.40
2019-04-03T21:30:13.117Z,92.10
2019-04-03T21:32:42.724Z,91.90
2019-04-03T21:35:12.511Z,91.80
2019-04-03T21:37:42.129Z,92.00
2019-04-03T21:40:14.730Z,91.50
2019-04-03T21:42:43.209Z,91.20
2019-04-03T21:45:13.346Z,91.30
2019-04-03T21:47:43.287Z,90.80
2019-04-03T21:50:12.955Z,90.60
2019-04-03T21:52:42.533Z,90.60
2019-04-03T21:55:12.619Z,90.10
2019-04-03T21:57:42.513Z,90.00
2019-04-03T22:00:14.437Z,89.60
2019-04-03T22:02:45.237Z,88.40
2019-04-03T22:05:15.026Z,88.50
2019-04-03T22:07:44.906Z,87.60
2019-04-03T22:10:15.091Z,88.20
2019-04-03T22:12:44.735Z,87.60
2019-04-03T22:15:14.586Z,86.40
2019-04-03T22:17:44.267Z,83.80
2019-04-03T22:20:13.990Z,84.80
2019-04-03T22:22:43.848Z,84.60
2019-04-03T22:25:14.003Z,83.70
2019-04-03T22:27:43.722Z,83.30
2019-04-03T22:30:13.652Z,82.60
2019-04-03T22:32:43.493Z,80.10
2019-04-03T22:35:14.001Z,82.30
2019-04-03T22:37:43.866Z,83.10
2019-04-03T22:40:13.494Z,83.30
2019-04-03T22:42:45.353Z,83.70
2019-04-03T22:45:14.373Z,82.90
2019-04-03T22:47:47.422Z,85.30
2019-04-03T22:50:15.786Z,84.80
2019-04-03T22:52:45.427Z,84.50
2019-04-03T22:55:15.484Z,83.60
2019-04-03T22:57:45.606Z,82.30
2019-04-03T23:00:15.346Z,82.70
2019-04-03T23:02:44.978Z,80.80
2019-04-03T23:05:16.900Z,80.80
2019-04-03T23:07:46.382Z,79.60
2019-04-03T23:10:15.981Z,79.00
2019-04-03T23:12:45.645Z,79.70
2019-04-03T23:15:15.263Z,79.20
2019-04-03T23:17:45.433Z,79.40
2019-04-03T23:20:15.109Z,78.80
2019-04-03T23:22:44.762Z,79.20
2019-04-03T23:25:14.392Z,78.90
2019-04-03T23:27:44.111Z,78.50
2019-04-03T23:30:13.865Z,80.00
2019-04-03T23:32:45.745Z,80.50
2019-04-03T23:35:15.101Z,80.70
2019-04-03T23:37:45.730Z,79.60
2019-04-03T23:40:15.443Z,78.90
2019-04-03T23:42:45.112Z,79.90
2019-04-03T23:45:15.317Z,79.70
2019-04-03T23:47:46.713Z,78.80
2019-04-03T23:50:16.329Z,78.60
2019-04-03T23:52:45.992Z,78.10
2019-04-03T23:55:15.598Z,77.40
2019-04-03T23:57:45.238Z,78.60
